createdAt,value
2022-09-17T00:01:41.797Z,81.44
2022-09-17T00:04:11.232Z,81.11
2022-09-17T00:06:38.843Z,81.23
2022-09-17T00:09:07.943Z,81.46
2022-09-17T00:11:39.497Z,82.12
2022-09-17T00:14:09.358Z,82.90
2022-09-17T00:16:39.021Z,81.40
2022-09-17T00:19:10.170Z,82.00
2022-09-17T00:21:37.928Z,82.21
2022-09-17T00:24:07.710Z,81.70
2022-09-17T00:26:37.062Z,81.85
2022-09-17T00:29:06.187Z,81.34
2022-09-17T00:31:34.474Z,80.61
2022-09-17T00:34:03.911Z,81.15
2022-09-17T00:36:35.051Z,81.54
2022-09-17T00:39:03.264Z,81.76
2022-09-17T00:41:33.644Z,81.68
2022-09-17T00:44:03.380Z,81.83
2022-09-17T00:46:36.899Z,81.38
2022-09-17T00:49:08.651Z,82.11
2022-09-17T00:51:59.612Z,82.09
2022-09-17T00:54:28.732Z,82.02
2022-09-17T00:56:59.809Z,81.71
2022-09-17T00:59:27.825Z,81.87
2022-09-17T01:01:55.948Z,81.99
2022-09-17T01:04:25.727Z,81.84
2022-09-17T01:07:04.130Z,81.53
2022-09-17T01:09:41.925Z,81.66
2022-09-17T01:12:23.603Z,81.56
2022-09-17T01:15:03.221Z,81.30
2022-09-17T01:17:39.877Z,82.00
2022-09-17T01:20:37.915Z,81.91
2022-09-17T01:23:37.793Z,81.59
2022-09-17T01:26:27.190Z,81.67
2022-09-17T01:29:02.493Z,81.75
2022-09-17T01:31:36.199Z,81.96
2022-09-17T01:34:14.372Z,82.08
2022-09-17T01:36:52.159Z,81.49
2022-09-17T01:39:31.899Z,81.90
2022-09-17T01:42:11.318Z,81.78
2022-09-17T01:44:46.887Z,81.82
2022-09-17T01:47:21.314Z,81.98
2022-09-17T01:49:52.010Z,81.82
2022-09-17T01:52:21.105Z,82.01
2022-09-17T01:54:52.418Z,81.40
2022-09-17T01:57:29.138Z,81.65
2022-09-17T02:00:01.048Z,81.58
2022-09-17T02:02:34.765Z,81.63
2022-09-17T02:05:06.291Z,81.95
2022-09-17T02:07:41.779Z,81.88
2022-09-17T02:10:13.542Z,82.28
2022-09-17T02:12:44.709Z,81.73
2022-09-17T02:15:15.337Z,82.13
2022-09-17T02:17:50.557Z,81.99
2022-09-17T02:20:23.077Z,82.80
2022-09-17T02:22:57.594Z,81.89
2022-09-17T02:25:31.145Z,82.09
2022-09-17T02:28:03.629Z,82.37
2022-09-17T02:30:32.102Z,81.84
2022-09-17T02:33:03.637Z,82.65
2022-09-17T02:35:32.032Z,82.33
2022-09-17T02:37:59.838Z,82.47
2022-09-17T02:40:33.135Z,82.81
2022-09-17T02:43:11.126Z,85.31
2022-09-17T02:45:52.606Z,85.69
2022-09-17T02:48:50.053Z,87.20
2022-09-17T02:51:30.427Z,86.44
2022-09-17T02:54:09.773Z,87.63
2022-09-17T02:56:46.198Z,87.65
2022-09-17T02:59:20.912Z,87.01
2022-09-17T03:01:55.598Z,87.60
2022-09-17T03:04:27.497Z,88.13
2022-09-17T03:06:56.564Z,88.01
2022-09-17T03:09:24.185Z,88.33
2022-09-17T03:11:51.803Z,88.16
2022-09-17T03:14:20.783Z,88.84
2022-09-17T03:16:48.801Z,88.37
2022-09-17T03:19:16.442Z,89.02
2022-09-17T03:21:45.755Z,90.16
2022-09-17T03:24:13.568Z,90.66
2022-09-17T03:26:41.089Z,90.96
2022-09-17T03:29:08.756Z,91.61
2022-09-17T03:31:36.380Z,91.39
2022-09-17T03:34:04.133Z,91.60
2022-09-17T03:36:32.015Z,92.38
2022-09-17T03:39:02.246Z,92.96
2022-09-17T03:41:32.132Z,92.94
2022-09-17T03:43:59.713Z,93.69
2022-09-17T03:46:29.734Z,93.80
2022-09-17T03:48:57.382Z,94.09
2022-09-17T03:51:25.019Z,94.95
2022-09-17T03:53:52.618Z,95.16
2022-09-17T03:56:21.538Z,95.60
2022-09-17T03:58:49.323Z,95.63
2022-09-17T04:01:17.029Z,96.06
2022-09-17T04:03:45.900Z,96.90
2022-09-17T04:06:13.420Z,96.98
2022-09-17T04:08:41.006Z,97.59
2022-09-17T04:11:08.797Z,98.44
2022-09-17T04:13:37.742Z,98.14
2022-09-17T04:16:06.665Z,97.94
2022-09-17T04:18:35.452Z,97.82
2022-09-17T04:21:03.715Z,98.05
2022-09-17T04:23:31.289Z,98.25
2022-09-17T04:25:58.835Z,98.08
2022-09-17T04:28:26.435Z,97.72
2022-09-17T04:30:55.448Z,97.56
2022-09-17T04:33:23.077Z,97.79
2022-09-17T04:35:50.716Z,97.32
2022-09-17T04:38:20.530Z,97.69
2022-09-17T04:40:48.180Z,97.61
2022-09-17T04:43:15.966Z,97.29
2022-09-17T04:45:46.552Z,97.31
2022-09-17T04:48:15.791Z,96.87
2022-09-17T04:50:43.428Z,97.00
2022-09-17T04:53:11.093Z,97.23
2022-09-17T04:55:38.807Z,96.88
2022-09-17T04:58:06.853Z,96.93
2022-09-17T05:00:35.313Z,97.07
2022-09-17T05:03:07.128Z,97.40
2022-09-17T05:05:36.501Z,97.66
2022-09-17T05:08:04.197Z,97.33
2022-09-17T05:10:33.381Z,97.48
2022-09-17T05:13:02.107Z,97.49
2022-09-17T05:15:29.708Z,98.11
2022-09-17T05:17:57.295Z,98.15
2022-09-17T05:20:24.870Z,98.41
2022-09-17T05:22:53.933Z,98.53
2022-09-17T05:25:24.125Z,98.85
2022-09-17T05:27:52.276Z,98.35
2022-09-17T05:30:20.165Z,98.37
2022-09-17T05:32:48.182Z,98.08
2022-09-17T05:35:16.156Z,97.65
2022-09-17T05:37:43.721Z,96.95
2022-09-17T05:40:12.903Z,97.82
2022-09-17T05:42:40.845Z,97.36
2022-09-17T05:45:09.397Z,97.49
2022-09-17T05:47:37.116Z,96.58
2022-09-17T05:50:05.191Z,96.56
2022-09-17T05:52:32.776Z,96.44
2022-09-17T05:55:00.507Z,96.29
2022-09-17T05:57:31.257Z,95.82
2022-09-17T05:59:58.950Z,95.81
2022-09-17T06:02:26.635Z,95.77
2022-09-17T06:04:54.190Z,95.13
2022-09-17T06:07:21.796Z,94.37
2022-09-17T06:09:49.383Z,92.15
2022-09-17T06:12:17.104Z,87.15
2022-09-17T06:14:46.239Z,80.42
2022-09-17T06:17:13.866Z,74.29
2022-09-17T06:19:41.416Z,71.42
2022-09-17T06:22:09.152Z,67.96
2022-09-17T06:24:36.755Z,65.62
2022-09-17T06:27:04.990Z,66.10
2022-09-17T06:29:32.608Z,63.86
2022-09-17T06:32:02.823Z,62.68
2022-09-17T06:34:30.529Z,61.79
2022-09-17T06:36:58.086Z,60.19
2022-09-17T06:39:25.804Z,58.26
2022-09-17T06:41:53.547Z,58.04
2022-09-17T06:44:21.162Z,56.28
2022-09-17T06:46:51.097Z,55.09
2022-09-17T06:49:20.234Z,53.79
2022-09-17T06:51:47.767Z,53.38
2022-09-17T06:54:15.293Z,52.65
2022-09-17T06:56:42.816Z,52.10
2022-09-17T06:59:10.427Z,50.88
2022-09-17T07:01:38.042Z,50.64
2022-09-17T07:04:05.697Z,51.67
2022-09-17T07:06:34.640Z,51.37
2022-09-17T07:09:02.197Z,51.07
2022-09-17T07:11:30.807Z,49.71
2022-09-17T07:13:59.051Z,51.91
2022-09-17T07:16:28.163Z,52.79
2022-09-17T07:18:55.795Z,52.99
2022-09-17T07:21:23.458Z,54.56
2022-09-17T07:23:53.058Z,56.55
2022-09-17T07:26:20.721Z,56.12
2022-09-17T07:28:48.448Z,56.67
2022-09-17T07:31:17.059Z,57.62
2022-09-17T07:33:45.124Z,58.55
2022-09-17T07:36:14.781Z,59.64
2022-09-17T07:38:42.474Z,58.47
2022-09-17T07:41:13.363Z,58.60
2022-09-17T07:43:42.923Z,56.75
2022-09-17T07:46:15.103Z,54.06
2022-09-17T07:48:43.008Z,53.30
2022-09-17T07:51:16.441Z,51.13
2022-09-17T07:53:43.956Z,52.87
2022-09-17T07:56:13.727Z,53.92
2022-09-17T07:58:42.319Z,55.14
2022-09-17T08:01:15.326Z,56.50
2022-09-17T08:03:44.178Z,57.74
2022-09-17T08:06:13.454Z,59.70
2022-09-17T08:08:41.483Z,59.62
2022-09-17T08:11:11.169Z,62.32
2022-09-17T08:13:40.400Z,63.43
2022-09-17T08:16:10.267Z,64.09
2022-09-17T08:18:38.508Z,66.17
2022-09-17T08:21:08.459Z,65.96
2022-09-17T08:23:37.890Z,65.88
2022-09-17T08:26:08.453Z,67.04
2022-09-17T08:28:36.721Z,67.75
2022-09-17T08:31:08.190Z,67.52
2022-09-17T08:33:38.082Z,67.35
2022-09-17T08:36:07.174Z,67.81
2022-09-17T08:38:38.341Z,67.75
2022-09-17T08:41:20.324Z,65.57
2022-09-17T08:43:58.005Z,61.35
2022-09-17T08:46:27.520Z,60.16
2022-09-17T08:49:03.095Z,58.11
2022-09-17T08:51:44.695Z,56.99
2022-09-17T08:54:17.551Z,56.97
2022-09-17T08:56:46.782Z,57.13
2022-09-17T08:59:26.538Z,55.80
2022-09-17T09:02:04.365Z,56.61
2022-09-17T09:04:58.853Z,57.49
2022-09-17T09:07:31.217Z,57.52
2022-09-17T09:10:12.346Z,56.84
2022-09-17T09:12:41.192Z,55.79
2022-09-17T09:15:22.874Z,54.69
2022-09-17T09:17:53.730Z,54.97
2022-09-17T09:20:32.108Z,56.02
2022-09-17T09:23:04.311Z,53.84
2022-09-17T09:25:36.151Z,54.09
2022-09-17T09:28:18.922Z,56.10
2022-09-17T09:31:09.115Z,57.53
2022-09-17T09:33:47.055Z,57.42
2022-09-17T09:36:21.557Z,58.12
2022-09-17T09:38:54.022Z,57.03
2022-09-17T09:41:28.303Z,54.39
2022-09-17T09:44:05.028Z,54.21
2022-09-17T09:46:59.552Z,55.34
2022-09-17T09:49:55.077Z,57.31
2022-09-17T09:52:37.211Z,55.54
2022-09-17T09:55:25.862Z,56.18
2022-09-17T09:58:00.440Z,56.05
2022-09-17T10:00:32.854Z,55.88
2022-09-17T10:03:06.026Z,55.70
2022-09-17T10:05:35.766Z,55.22
2022-09-17T10:08:12.507Z,56.14
2022-09-17T10:10:55.795Z,53.96
2022-09-17T10:13:29.055Z,54.75
2022-09-17T10:16:08.833Z,56.03
2022-09-17T10:18:37.014Z,56.49
2022-09-17T10:21:20.638Z,56.28
2022-09-17T10:23:49.225Z,57.51
2022-09-17T10:26:25.661Z,58.07
2022-09-17T10:28:56.029Z,58.83
2022-09-17T10:31:24.274Z,59.17
2022-09-17T10:33:57.923Z,58.09
2022-09-17T10:36:44.152Z,57.64
2022-09-17T10:39:31.212Z,56.92
2022-09-17T10:42:01.181Z,55.82
2022-09-17T10:44:30.677Z,55.30
2022-09-17T10:47:05.448Z,56.21
2022-09-17T10:49:38.858Z,56.31
2022-09-17T10:52:15.191Z,55.37
2022-09-17T10:55:06.823Z,55.98
2022-09-17T10:57:58.503Z,56.72
2022-09-17T11:00:35.861Z,57.56
2022-09-17T11:03:33.266Z,58.31
2022-09-17T11:06:25.737Z,56.66
2022-09-17T11:09:06.828Z,57.73
2022-09-17T11:11:45.740Z,57.37
2022-09-17T11:14:36.042Z,57.00
2022-09-17T11:17:13.108Z,56.27
2022-09-17T11:19:51.876Z,55.83
2022-09-17T11:22:24.732Z,55.43
2022-09-17T11:25:04.284Z,54.28
2022-09-17T11:27:47.051Z,55.51
2022-09-17T11:30:19.260Z,55.69
2022-09-17T11:33:00.504Z,54.96
2022-09-17T11:35:31.914Z,54.87
2022-09-17T11:38:04.890Z,55.57
2022-09-17T11:40:40.274Z,54.75
2022-09-17T11:43:18.295Z,54.61
2022-09-17T11:45:57.483Z,54.80
2022-09-17T11:48:32.884Z,54.99
2022-09-17T11:51:08.316Z,62.36
2022-09-17T11:53:42.150Z,65.11
2022-09-17T11:56:18.516Z,67.11
2022-09-17T11:58:52.634Z,68.84
2022-09-17T12:01:27.362Z,69.37
2022-09-17T12:04:00.609Z,68.25
2022-09-17T12:06:37.409Z,69.36
2022-09-17T12:09:11.816Z,69.13
2022-09-17T12:11:45.531Z,69.20
2022-09-17T12:14:18.817Z,69.38
2022-09-17T12:16:50.495Z,68.60
2022-09-17T12:19:25.361Z,65.24
2022-09-17T12:21:57.218Z,66.70
2022-09-17T12:24:26.825Z,65.00
2022-09-17T12:27:18.911Z,65.98
2022-09-17T12:30:05.849Z,62.65
2022-09-17T12:32:48.720Z,59.53
2022-09-17T12:35:59.744Z,58.58
2022-09-17T12:38:35.233Z,59.15
2022-09-17T12:41:11.888Z,56.05
2022-09-17T12:44:02.222Z,57.69
2022-09-17T12:46:48.024Z,54.68
2022-09-17T12:49:38.407Z,54.82
2022-09-17T12:52:15.251Z,54.55
2022-09-17T12:55:00.206Z,53.53
2022-09-17T12:57:36.596Z,53.47
2022-09-17T13:00:08.427Z,52.79
2022-09-17T13:02:42.717Z,52.36
2022-09-17T13:05:43.921Z,53.88
2022-09-17T13:08:35.167Z,54.22
2022-09-17T13:11:55.000Z,53.61
2022-09-17T13:14:32.553Z,54.50
2022-09-17T13:17:06.373Z,54.84
2022-09-17T13:19:41.470Z,55.48
2022-09-17T13:22:17.311Z,52.30
2022-09-17T13:24:49.021Z,53.48
2022-09-17T13:27:23.343Z,52.39
2022-09-17T13:30:01.931Z,50.96
2022-09-17T13:32:48.930Z,49.82
2022-09-17T13:35:51.399Z,49.72
2022-09-17T13:38:23.806Z,49.79
2022-09-17T13:40:53.153Z,49.62
2022-09-17T13:43:26.783Z,50.54
2022-09-17T13:46:15.571Z,49.34
2022-09-17T13:48:53.025Z,49.86
2022-09-17T13:51:55.092Z,50.03
2022-09-17T13:54:36.072Z,49.44
2022-09-17T13:57:11.313Z,50.58
2022-09-17T13:59:39.530Z,50.77
2022-09-17T14:02:37.345Z,51.07
2022-09-17T14:05:35.564Z,51.81
2022-09-17T14:08:15.134Z,51.10
2022-09-17T14:10:45.042Z,52.28
2022-09-17T14:13:28.813Z,52.58
2022-09-17T14:16:05.006Z,53.14
2022-09-17T14:18:59.014Z,53.00
2022-09-17T14:21:31.488Z,53.66
2022-09-17T14:24:02.151Z,51.94
2022-09-17T14:26:49.530Z,51.42
2022-09-17T14:29:47.000Z,51.22
2022-09-17T14:32:21.656Z,53.03
2022-09-17T14:34:50.707Z,52.71
2022-09-17T14:37:22.730Z,53.16
2022-09-17T14:39:52.712Z,59.52
2022-09-17T14:42:24.360Z,63.53
2022-09-17T14:44:59.834Z,67.33
2022-09-17T14:47:27.961Z,66.52
2022-09-17T14:49:55.822Z,65.86
2022-09-17T14:52:40.180Z,66.24
2022-09-17T14:55:17.117Z,65.24
2022-09-17T14:57:46.254Z,65.28
2022-09-17T15:00:25.535Z,64.26
2022-09-17T15:02:55.868Z,64.16
2022-09-17T15:05:27.187Z,63.49
2022-09-17T15:08:12.807Z,63.56
2022-09-17T15:10:47.948Z,62.64
2022-09-17T15:13:18.149Z,60.94
2022-09-17T15:15:54.353Z,59.43
2022-09-17T15:18:25.117Z,59.88
2022-09-17T15:20:56.632Z,59.49
2022-09-17T15:23:29.092Z,57.78
2022-09-17T15:25:59.906Z,57.81
2022-09-17T15:28:32.707Z,59.67
2022-09-17T15:31:00.629Z,59.87
2022-09-17T15:33:30.149Z,61.08
2022-09-17T15:36:07.806Z,60.02
2022-09-17T15:38:39.165Z,60.49
2022-09-17T15:41:28.477Z,58.80
2022-09-17T15:44:28.543Z,59.43
2022-09-17T15:46:57.829Z,59.97
2022-09-17T15:49:30.477Z,60.01
2022-09-17T15:52:32.699Z,60.50
2022-09-17T15:55:02.270Z,61.27
2022-09-17T15:57:32.928Z,61.84
2022-09-17T16:00:08.811Z,62.74
2022-09-17T16:02:36.723Z,62.60
2022-09-17T16:05:55.777Z,64.12
2022-09-17T16:08:25.367Z,64.30
2022-09-17T16:10:54.778Z,64.79
2022-09-17T16:13:27.882Z,64.62
2022-09-17T16:15:56.738Z,65.64
2022-09-17T16:18:26.690Z,65.02
2022-09-17T16:20:54.339Z,64.41
2022-09-17T16:23:22.528Z,64.31
2022-09-17T16:25:52.959Z,64.17
2022-09-17T16:28:22.023Z,63.71
2022-09-17T16:30:51.767Z,64.63
2022-09-17T16:33:20.035Z,63.23
2022-09-17T16:35:48.912Z,63.77
2022-09-17T16:38:16.903Z,65.08
2022-09-17T16:40:47.137Z,65.75
2022-09-17T16:43:19.476Z,65.52
2022-09-17T16:46:00.359Z,66.43
2022-09-17T16:48:28.236Z,65.78
2022-09-17T16:50:55.891Z,67.16
2022-09-17T16:53:23.567Z,67.82
2022-09-17T16:55:51.497Z,68.08
2022-09-17T16:58:19.243Z,69.07
2022-09-17T17:00:47.299Z,69.19
2022-09-17T17:03:17.025Z,68.38
2022-09-17T17:05:44.718Z,66.03
2022-09-17T17:08:14.449Z,66.91
2022-09-17T17:10:42.112Z,67.26
2022-09-17T17:13:11.746Z,68.99
2022-09-17T17:15:42.670Z,68.84
2022-09-17T17:18:10.501Z,68.96
2022-09-17T17:20:40.604Z,69.12
2022-09-17T17:23:08.417Z,69.98
2022-09-17T17:25:36.277Z,70.86
2022-09-17T17:28:03.881Z,70.79
2022-09-17T17:30:35.039Z,70.47
2022-09-17T17:33:03.923Z,70.03
2022-09-17T17:35:31.736Z,70.59
2022-09-17T17:38:00.717Z,70.31
2022-09-17T17:40:30.759Z,70.47
2022-09-17T17:42:58.908Z,70.42
2022-09-17T17:45:26.618Z,70.35
2022-09-17T17:47:54.612Z,71.00
2022-09-17T17:50:23.884Z,71.46
2022-09-17T17:52:54.622Z,71.47
2022-09-17T17:55:23.642Z,72.35
2022-09-17T17:58:00.867Z,73.23
2022-09-17T18:00:29.333Z,73.06
2022-09-17T18:02:57.150Z,73.49
2022-09-17T18:05:24.867Z,73.20
2022-09-17T18:07:52.644Z,72.84
2022-09-17T18:10:20.910Z,72.99
2022-09-17T18:12:51.252Z,73.41
2022-09-17T18:15:19.176Z,73.29
2022-09-17T18:17:49.918Z,72.96
2022-09-17T18:20:18.218Z,71.96
2022-09-17T18:22:45.982Z,72.30
2022-09-17T18:25:13.709Z,73.29
2022-09-17T18:27:42.382Z,73.81
2022-09-17T18:30:14.751Z,74.08
2022-09-17T18:32:42.428Z,74.01
2022-09-17T18:35:10.182Z,74.28
2022-09-17T18:37:37.958Z,74.12
2022-09-17T18:40:06.490Z,74.25
2022-09-17T18:42:34.384Z,74.87
2022-09-17T18:45:02.168Z,74.56
2022-09-17T18:47:31.130Z,75.54
2022-09-17T18:49:59.032Z,76.29
2022-09-17T18:52:26.847Z,76.72
2022-09-17T18:54:54.477Z,76.88
2022-09-17T18:57:22.200Z,77.12
2022-09-17T18:59:49.898Z,76.72
2022-09-17T19:02:17.592Z,76.93
2022-09-17T19:04:46.662Z,76.19
2022-09-17T19:07:14.383Z,76.49
2022-09-17T19:09:42.237Z,76.93
2022-09-17T19:12:09.901Z,76.79
2022-09-17T19:14:37.642Z,76.71
2022-09-17T19:17:05.418Z,75.68
2022-09-17T19:19:32.995Z,74.83
2022-09-17T19:22:02.093Z,73.85
2022-09-17T19:24:29.768Z,73.48
2022-09-17T19:27:01.548Z,73.48
2022-09-17T19:29:29.121Z,72.95
2022-09-17T19:31:56.757Z,73.23
2022-09-17T19:34:24.585Z,73.21
2022-09-17T19:36:52.239Z,72.64
2022-09-17T19:39:21.246Z,73.53
2022-09-17T19:41:48.892Z,74.02
2022-09-17T19:44:16.493Z,74.57
2022-09-17T19:46:44.103Z,74.60
2022-09-17T19:49:15.788Z,75.37
2022-09-17T19:51:43.397Z,75.39
2022-09-17T19:54:11.572Z,74.75
2022-09-17T19:56:40.491Z,75.49
2022-09-17T19:59:08.520Z,75.92
2022-09-17T20:01:36.230Z,76.72
2022-09-17T20:04:04.205Z,77.94
2022-09-17T20:06:34.191Z,78.63
2022-09-17T20:09:01.783Z,79.54
2022-09-17T20:11:29.433Z,79.93
2022-09-17T20:13:59.460Z,79.86
2022-09-17T20:16:27.494Z,80.43
2022-09-17T20:18:55.223Z,80.56
2022-09-17T20:21:24.886Z,80.73
2022-09-17T20:23:52.846Z,81.55
2022-09-17T20:26:20.629Z,81.36
2022-09-17T20:28:50.288Z,81.58
2022-09-17T20:31:21.227Z,81.58
2022-09-17T20:33:51.728Z,82.25
2022-09-17T20:36:20.901Z,82.53
2022-09-17T20:41:40.159Z,83.07
2022-09-17T20:44:08.266Z,83.15
2022-09-17T20:46:37.331Z,83.56
2022-09-17T20:49:05.359Z,83.52
2022-09-17T20:51:34.212Z,83.53
2022-09-17T20:54:02.832Z,83.44
2022-09-17T20:56:33.123Z,83.40
2022-09-17T20:59:08.295Z,83.17
2022-09-17T21:01:38.178Z,83.46
2022-09-17T21:04:07.635Z,83.49
2022-09-17T21:06:38.091Z,83.52
2022-09-17T21:09:07.195Z,84.02
2022-09-17T21:11:35.470Z,83.60
2022-09-17T21:14:05.147Z,84.22
2022-09-17T21:16:34.258Z,84.33
2022-09-17T21:19:05.525Z,83.72
2022-09-17T21:21:34.416Z,83.86
2022-09-17T21:24:02.996Z,83.84
2022-09-17T21:26:32.398Z,83.86
2022-09-17T21:28:59.993Z,83.69
2022-09-17T21:31:32.404Z,84.36
2022-09-17T21:34:03.597Z,84.39
2022-09-17T21:36:32.766Z,84.21
2022-09-17T21:39:02.307Z,83.93
2022-09-17T21:41:30.995Z,83.66
2022-09-17T21:43:59.264Z,83.59
2022-09-17T21:46:28.981Z,83.95
2022-09-17T21:48:59.950Z,84.35
2022-09-17T21:51:30.902Z,84.87
2022-09-17T21:54:00.408Z,86.05
2022-09-17T21:56:28.819Z,86.53
2022-09-17T21:58:58.813Z,87.00
2022-09-17T22:01:31.039Z,87.54
2022-09-17T22:04:00.012Z,86.93
2022-09-17T22:06:30.930Z,87.33
2022-09-17T22:09:00.643Z,87.05
2022-09-17T22:11:30.567Z,86.77
2022-09-17T22:14:00.833Z,87.21
2022-09-17T22:16:30.670Z,87.29
2022-09-17T22:18:59.550Z,87.76
2022-09-17T22:21:29.964Z,87.54
2022-09-17T22:23:59.498Z,86.16
2022-09-17T22:26:29.480Z,86.73
2022-09-17T22:29:01.250Z,85.88
2022-09-17T22:31:28.932Z,86.08
2022-09-17T22:33:56.616Z,86.25
2022-09-17T22:36:25.932Z,86.24
2022-09-17T22:38:56.373Z,86.71
2022-09-17T22:41:25.922Z,86.68
2022-09-17T22:43:54.320Z,86.40
2022-09-17T22:46:24.501Z,86.43
2022-09-17T22:48:52.170Z,86.70
2022-09-17T22:51:20.028Z,86.58
2022-09-17T22:53:47.540Z,86.49
2022-09-17T22:56:18.327Z,86.82
2022-09-17T22:58:46.006Z,86.71
2022-09-17T23:01:15.582Z,87.28
2022-09-17T23:03:44.389Z,86.72
2022-09-17T23:06:14.377Z,86.89
2022-09-17T23:08:42.489Z,87.40
2022-09-17T23:11:16.919Z,87.61
2022-09-17T23:13:45.864Z,87.54
2022-09-17T23:16:13.600Z,87.97
2022-09-17T23:18:41.643Z,87.71
2022-09-17T23:21:14.148Z,87.34
2022-09-17T23:23:45.413Z,87.47
2022-09-17T23:26:15.396Z,87.27
2022-09-17T23:28:43.199Z,86.48
2022-09-17T23:31:13.987Z,86.42
2022-09-17T23:33:42.358Z,86.61
2022-09-17T23:36:13.681Z,86.43
2022-09-17T23:38:42.457Z,86.35
2022-09-17T23:41:12.434Z,86.57
2022-09-17T23:43:40.129Z,86.69
2022-09-17T23:46:08.158Z,85.65
2022-09-17T23:48:37.202Z,85.54
2022-09-17T23:51:05.781Z,85.64
2022-09-17T23:53:35.301Z,85.92
2022-09-17T23:56:03.760Z,85.28
2022-09-17T23:58:31.833Z,85.24
